Time;durP1;ratioP1;P1;durP2;ratioP2;P2;SDS_P1;SDS_P2;PMS_P1;PMS_P2;Temp;Humidity;BMP_temperature;BMP_pressure;BME280_temperature;BME280_humidity;BME280_pressure;Samples;Min_cycle;Max_cycle;Signal;HPM_P1;HPM_P2
2020/12/25 00:02:28;;;;;;;3.13;1.53;;;3.20;92.30;;;;;;4428639;32;20175;-65
2020/12/25 00:04:56;;;;;;;5.50;1.47;;;3.10;92.50;;;;;;4433749;32;20658;-64
2020/12/25 00:07:22;;;;;;;3.67;1.33;;;3.10;92.50;;;;;;4422221;32;20189;-65
2020/12/25 00:09:50;;;;;;;5.07;1.57;;;3.10;92.50;;;;;;4427754;32;20210;-65
2020/12/25 00:12:23;;;;;;;2.37;1.20;;;3.10;92.50;;;;;;4434074;32;20250;-65
2020/12/25 00:14:52;;;;;;;7.20;1.50;;;3.10;92.70;;;;;;4423846;32;20528;-65
2020/12/25 00:17:23;;;;;;;7.90;1.73;;;3.10;92.70;;;;;;4430467;32;20218;-65
2020/12/25 00:19:51;;;;;;;2.70;1.23;;;3.10;92.70;;;;;;4433177;32;20152;-65
2020/12/25 00:22:18;;;;;;;3.80;1.90;;;3.00;92.70;;;;;;4436637;32;20173;-67
2020/12/25 00:24:56;;;;;;;7.20;1.70;;;3.10;92.80;;;;;;4431879;32;20201;-65
2020/12/25 00:27:25;;;;;;;4.00;2.10;;;3.00;92.90;;;;;;4438847;32;20173;-65
2020/12/25 00:29:53;;;;;;;7.97;1.57;;;3.20;93.30;;;;;;4435970;32;20230;-64
2020/12/25 00:32:27;;;;;;;6.53;1.10;;;3.40;93.10;;;;;;4431684;32;20163;-64
2020/12/25 00:35:03;;;;;;;5.70;1.30;;;3.60;92.30;;;;;;4437293;32;20211;-65
2020/12/25 00:37:29;;;;;;;5.20;1.20;;;3.70;91.70;;;;;;4437623;32;20566;-64
2020/12/25 00:39:58;;;;;;;3.73;1.40;;;3.70;91.60;;;;;;4433449;32;20661;-66
2020/12/25 00:42:25;;;;;;;5.37;1.47;;;3.70;91.50;;;;;;4428882;32;20224;-66
2020/12/25 00:44:53;;;;;;;6.30;1.20;;;3.60;91.40;;;;;;4428860;32;20179;-65
2020/12/25 00:47:20;;;;;;;4.17;1.23;;;3.60;91.70;;;;;;4433506;32;20215;-66
2020/12/25 00:49:46;;;;;;;4.67;1.40;;;3.50;91.80;;;;;;4435175;32;20190;-66
2020/12/25 00:52:12;;;;;;;1.80;1.17;;;3.60;91.70;;;;;;4437305;32;20619;-65
2020/12/25 00:54:39;;;;;;;4.37;1.03;;;3.60;91.80;;;;;;4433216;32;20178;-65
2020/12/25 00:57:08;;;;;;;7.10;1.23;;;3.50;91.80;;;;;;4436207;32;20218;-65
2020/12/25 00:59:40;;;;;;;7.30;1.13;;;3.50;92.10;;;;;;4436971;32;20215;-65
2020/12/25 01:02:06;;;;;;;4.33;1.10;;;3.70;91.90;;;;;;4426730;32;20746;-64
2020/12/25 01:04:33;;;;;;;6.37;1.43;;;3.70;91.80;;;;;;4430540;32;20197;-64
2020/12/25 01:06:59;;;;;;;4.47;1.50;;;3.70;91.70;;;;;;4434225;32;20215;-66
2020/12/25 01:09:28;;;;;;;4.60;1.23;;;3.70;91.70;;;;;;4437174;32;20259;-65
2020/12/25 01:11:58;;;;;;;4.60;1.00;;;3.70;91.70;;;;;;4432234;32;20215;-64
2020/12/25 01:14:24;;;;;;;5.93;1.33;;;3.60;91.80;;;;;;4433992;32;20170;-64
2020/12/25 01:16:51;;;;;;;2.97;1.20;;;3.70;91.70;;;;;;4434877;32;20207;-65
2020/12/25 01:19:19;;;;;;;5.17;1.50;;;3.70;91.60;;;;;;4436620;32;20189;-65
2020/12/25 01:21:45;;;;;;;10.53;1.70;;;3.80;91.50;;;;;;4438570;32;20281;-67
2020/12/25 01:24:11;;;;;;;2.67;1.10;;;3.60;91.50;;;;;;4437052;32;20575;-64
2020/12/25 01:26:38;;;;;;;4.30;1.27;;;3.50;91.80;;;;;;4434435;32;20266;-66
2020/12/25 01:29:04;;;;;;;3.40;1.10;;;3.40;92.00;;;;;;4432755;32;20213;-67
2020/12/25 01:31:31;;;;;;;2.83;1.00;;;3.30;92.10;;;;;;4434338;32;20211;-65
2020/12/25 01:33:58;;;;;;;3.43;1.10;;;3.40;92.20;;;;;;4434885;32;20181;-66
2020/12/25 01:36:25;;;;;;;5.50;0.90;;;3.20;92.30;;;;;;4435515;32;21527;-66
2020/12/25 01:38:56;;;;;;;8.47;1.97;;;3.30;92.60;;;;;;4430807;32;20153;-65
2020/12/25 01:41:22;;;;;;;5.97;1.97;;;3.40;92.50;;;;;;4431458;32;20505;-65
2020/12/25 01:43:49;;;;;;;5.43;1.47;;;3.40;92.40;;;;;;4436888;32;20642;-64
2020/12/25 01:46:18;;;;;;;7.80;1.83;;;3.40;92.40;;;;;;4425265;32;20189;-65
2020/12/25 01:48:48;;;;;;;3.40;1.20;;;3.60;92.50;;;;;;4424585;32;20652;-66
2020/12/25 01:51:19;;;;;;;7.27;1.20;;;3.50;92.50;;;;;;4435476;32;20155;-65
2020/12/25 01:53:49;;;;;;;5.70;1.47;;;3.50;92.60;;;;;;4428689;32;20216;-64
2020/12/25 01:56:18;;;;;;;5.23;1.40;;;3.50;92.70;;;;;;4435201;32;20214;-67
2020/12/25 01:58:45;;;;;;;4.23;1.20;;;3.60;92.70;;;;;;4433442;32;20212;-66
2020/12/25 02:01:20;;;;;;;6.30;1.20;;;3.60;92.70;;;;;;4427091;32;20203;-64
2020/12/25 02:03:47;;;;;;;4.10;1.10;;;3.60;92.70;;;;;;4435886;32;20244;-65
2020/12/25 02:06:14;;;;;;;6.47;1.57;;;3.70;92.90;;;;;;4435536;32;20249;-66
2020/12/25 02:08:41;;;;;;;2.30;1.10;;;3.80;92.90;;;;;;4437212;32;20214;-65
2020/12/25 02:11:08;;;;;;;3.93;0.97;;;3.90;92.80;;;;;;4433015;32;20573;-65
2020/12/25 02:13:34;;;;;;;5.03;1.10;;;3.90;92.40;;;;;;4436139;32;20241;-66
2020/12/25 02:16:00;;;;;;;5.43;1.67;;;3.90;92.30;;;;;;4431624;32;20217;-65
2020/12/25 02:18:33;;;;;;;2.30;0.93;;;3.80;92.20;;;;;;4434969;32;20228;-65
2020/12/25 02:21:02;;;;;;;10.13;1.23;;;3.70;92.10;;;;;;4432533;32;20199;-65
2020/12/25 02:23:30;;;;;;;5.03;1.30;;;3.60;92.00;;;;;;4424656;32;20230;-64
2020/12/25 02:25:57;;;;;;;5.03;1.03;;;3.60;91.90;;;;;;4423375;32;20191;-65
2020/12/25 02:28:23;;;;;;;2.90;1.10;;;3.60;91.80;;;;;;4434607;32;20181;-66
2020/12/25 02:30:49;;;;;;;8.33;1.40;;;3.60;91.70;;;;;;4434551;32;20181;-65
2020/12/25 02:33:16;;;;;;;8.07;1.17;;;3.60;91.50;;;;;;4427452;32;20496;-66
2020/12/25 02:35:42;;;;;;;10.00;1.17;;;3.50;91.60;;;;;;4434465;32;20219;-65
2020/12/25 02:38:09;;;;;;;3.53;1.10;;;3.50;91.50;;;;;;4430840;32;20218;-64
2020/12/25 02:40:36;;;;;;;3.03;0.87;;;3.60;91.50;;;;;;4421594;32;20502;-64
2020/12/25 02:43:07;;;;;;;3.97;0.70;;;3.50;91.40;;;;;;4435949;32;20267;-65
2020/12/25 02:45:33;;;;;;;3.63;0.90;;;3.50;91.60;;;;;;4424714;32;20309;-66
2020/12/25 02:48:02;;;;;;;4.77;1.00;;;3.40;91.70;;;;;;4434022;32;20158;-66
2020/12/25 02:50:30;;;;;;;3.37;0.90;;;3.30;92.10;;;;;;4435336;32;20314;-65
2020/12/25 02:52:56;;;;;;;2.57;1.00;;;3.40;92.30;;;;;;4428804;32;20207;-65
2020/12/25 02:55:24;;;;;;;2.13;0.70;;;3.50;92.40;;;;;;4420487;32;20185;-65
2020/12/25 02:57:51;;;;;;;3.97;1.17;;;3.60;92.50;;;;;;4433035;32;20606;-65
2020/12/25 03:00:20;;;;;;;5.03;1.87;;;3.60;92.30;;;;;;4431647;32;20173;-65
2020/12/25 03:02:46;;;;;;;5.00;0.80;;;3.50;92.00;;;;;;4423358;32;20165;-64
2020/12/25 03:05:12;;;;;;;1.80;0.70;;;3.50;92.10;;;;;;4429028;32;20523;-65
2020/12/25 03:07:39;;;;;;;2.47;0.90;;;3.40;92.30;;;;;;4435812;32;20189;-65
2020/12/25 03:10:05;;;;;;;3.67;1.13;;;3.40;92.30;;;;;;4435061;32;20249;-65
2020/12/25 03:12:35;;;;;;;7.07;1.47;;;3.30;92.30;;;;;;4435474;32;20221;-65
2020/12/25 03:15:01;;;;;;;4.43;0.83;;;3.30;92.50;;;;;;4435075;32;20185;-65
2020/12/25 03:17:27;;;;;;;3.43;0.90;;;3.20;92.50;;;;;;4431123;32;20205;-65
2020/12/25 03:19:55;;;;;;;2.70;0.73;;;3.20;92.40;;;;;;4434370;32;20207;-65
2020/12/25 03:22:22;;;;;;;5.33;0.80;;;3.20;92.40;;;;;;4433036;32;20191;-64
2020/12/25 03:24:50;;;;;;;2.43;1.00;;;3.10;92.50;;;;;;4434171;32;20213;-64
2020/12/25 03:27:16;;;;;;;2.00;0.60;;;3.10;92.40;;;;;;4420587;32;20663;-65
2020/12/25 03:29:43;;;;;;;4.67;1.20;;;3.00;92.50;;;;;;4431817;32;20183;-66
2020/12/25 03:32:09;;;;;;;5.93;1.20;;;2.90;92.50;;;;;;4431794;32;20222;-65
2020/12/25 03:34:36;;;;;;;2.97;1.00;;;2.90;92.60;;;;;;4430628;32;20257;-66
2020/12/25 03:37:04;;;;;;;5.87;0.80;;;2.80;92.60;;;;;;4433600;32;20207;-66
2020/12/25 03:39:33;;;;;;;1.47;0.63;;;2.80;92.60;;;;;;4434490;32;20286;-65
2020/12/25 03:42:01;;;;;;;3.57;1.30;;;2.70;92.70;;;;;;4434628;32;20214;-65
2020/12/25 03:44:29;;;;;;;2.47;0.90;;;2.70;92.80;;;;;;4434645;32;20575;-65
2020/12/25 03:46:58;;;;;;;3.73;1.30;;;2.70;92.90;;;;;;4434023;32;20582;-66
2020/12/25 03:49:24;;;;;;;3.87;1.10;;;2.60;92.90;;;;;;4432740;32;20155;-66
2020/12/25 03:51:51;;;;;;;4.63;0.90;;;2.60;93.10;;;;;;4430569;32;20201;-66
2020/12/25 03:54:17;;;;;;;4.43;1.20;;;2.60;93.10;;;;;;4434865;32;20246;-66
2020/12/25 03:56:43;;;;;;;8.13;1.10;;;2.60;93.10;;;;;;4436217;32;20548;-65
2020/12/25 03:59:11;;;;;;;5.33;1.30;;;2.60;93.10;;;;;;4437814;32;20241;-65
2020/12/25 04:01:40;;;;;;;4.13;0.93;;;2.60;93.00;;;;;;4433504;32;20163;-65
2020/12/25 04:04:07;;;;;;;4.27;1.40;;;2.60;93.10;;;;;;4433751;32;20210;-66
2020/12/25 04:06:34;;;;;;;3.73;1.17;;;2.70;93.30;;;;;;4437457;32;20189;-65
2020/12/25 04:09:00;;;;;;;1.93;0.90;;;2.70;93.70;;;;;;4440130;32;20171;-66
2020/12/25 04:11:26;;;;;;;4.90;0.90;;;2.80;93.50;;;;;;4439260;32;20222;-65
2020/12/25 04:13:52;;;;;;;5.37;1.23;;;2.80;93.30;;;;;;4436367;32;20167;-65
2020/12/25 04:16:21;;;;;;;6.70;1.20;;;2.80;93.30;;;;;;4437597;32;20207;-66
2020/12/25 04:18:49;;;;;;;6.13;1.40;;;2.70;93.40;;;;;;4435132;32;20163;-65
2020/12/25 04:21:31;;;;;;;6.80;1.20;;;2.70;93.50;;;;;;4436883;32;20171;-65
2020/12/25 04:24:00;;;;;;;7.10;1.23;;;2.80;93.80;;;;;;4436149;32;20190;-63
2020/12/25 04:26:27;;;;;;;6.90;1.80;;;2.80;93.90;;;;;;4434495;32;20802;-66
2020/12/25 04:28:53;;;;;;;4.43;1.90;;;2.80;93.50;;;;;;4437050;32;20222;-67
2020/12/25 04:31:19;;;;;;;5.43;1.40;;;2.70;93.40;;;;;;4432762;32;20206;-64
2020/12/25 04:33:46;;;;;;;5.10;1.77;;;2.70;93.30;;;;;;4435626;32;20164;-63
2020/12/25 04:36:14;;;;;;;7.37;2.10;;;2.60;93.40;;;;;;4429609;32;20159;-64
2020/12/25 04:38:42;;;;;;;5.80;1.63;;;2.70;93.30;;;;;;4436141;32;20171;-64
2020/12/25 04:41:08;;;;;;;4.00;1.57;;;2.70;93.50;;;;;;4438174;32;20180;-65
2020/12/25 04:43:43;;;;;;;3.97;1.77;;;2.60;93.40;;;;;;4434474;32;20193;-64
2020/12/25 04:46:10;;;;;;;11.63;2.27;;;2.70;93.40;;;;;;4438282;32;21202;-65
2020/12/25 04:48:37;;;;;;;9.77;2.43;;;2.70;93.40;;;;;;4435822;32;20208;-65
2020/12/25 04:51:03;;;;;;;7.97;2.60;;;2.70;93.50;;;;;;4437582;32;20170;-65
2020/12/25 04:53:30;;;;;;;10.33;2.00;;;2.70;93.50;;;;;;4436588;32;20169;-65
2020/12/25 04:55:58;;;;;;;7.90;2.43;;;2.70;93.40;;;;;;4435163;32;20250;-64
2020/12/25 04:58:25;;;;;;;14.57;3.30;;;2.60;93.30;;;;;;4423234;32;20204;-65
2020/12/25 05:01:07;;;;;;;12.33;2.83;;;2.60;93.40;;;;;;4430475;32;20666;-64
2020/12/25 05:03:38;;;;;;;5.23;1.57;;;2.60;93.40;;;;;;4427601;32;20174;-64
2020/12/25 05:06:06;;;;;;;11.33;1.70;;;2.50;93.30;;;;;;4435898;32;20166;-63
2020/12/25 05:08:40;;;;;;;9.87;2.07;;;2.60;93.50;;;;;;4438862;32;20209;-65
2020/12/25 05:11:11;;;;;;;9.77;1.83;;;2.60;93.40;;;;;;4430979;32;20509;-64
2020/12/25 05:13:44;;;;;;;11.63;2.10;;;2.80;93.40;;;;;;4434591;32;20163;-63
2020/12/25 05:16:11;;;;;;;10.67;2.23;;;2.80;93.20;;;;;;4431323;32;20221;-64
2020/12/25 05:18:42;;;;;;;10.90;2.20;;;2.90;93.00;;;;;;4430472;32;20586;-65
2020/12/25 05:21:12;;;;;;;10.37;2.70;;;2.90;93.00;;;;;;4435781;32;20185;-65
2020/12/25 05:23:44;;;;;;;6.37;1.70;;;2.80;93.10;;;;;;4436230;32;20211;-65
2020/12/25 05:26:15;;;;;;;10.73;1.77;;;2.80;93.20;;;;;;4435864;32;20252;-65
2020/12/25 05:28:47;;;;;;;8.83;2.53;;;2.80;93.30;;;;;;4426954;32;20171;-65
2020/12/25 05:31:13;;;;;;;3.73;1.83;;;2.90;93.50;;;;;;4436508;32;20457;-65
2020/12/25 05:33:40;;;;;;;7.73;1.90;;;2.90;93.00;;;;;;4436825;32;20185;-66
2020/12/25 05:36:08;;;;;;;13.77;2.30;;;2.80;93.00;;;;;;4436528;32;20218;-65
2020/12/25 05:38:36;;;;;;;7.57;2.10;;;2.90;92.80;;;;;;4436204;32;20253;-65
2020/12/25 05:41:04;;;;;;;7.33;1.80;;;3.00;92.50;;;;;;4436664;32;20163;-66
2020/12/25 05:43:31;;;;;;;8.90;1.70;;;3.00;92.50;;;;;;4435273;32;20218;-65
2020/12/25 05:45:59;;;;;;;15.77;2.20;;;3.00;92.40;;;;;;4436318;32;20192;-65
2020/12/25 05:48:26;;;;;;;9.43;1.93;;;2.90;92.40;;;;;;4438161;32;20211;-64
2020/12/25 05:50:54;;;;;;;14.23;1.93;;;2.90;92.50;;;;;;4436572;32;20218;-63
2020/12/25 05:53:21;;;;;;;14.93;2.40;;;2.90;92.50;;;;;;4434995;32;20190;-64
2020/12/25 05:55:47;;;;;;;14.90;2.30;;;2.90;92.50;;;;;;4431377;32;20265;-64
2020/12/25 05:58:15;;;;;;;9.70;1.90;;;2.90;92.60;;;;;;4422353;32;20250;-63
2020/12/25 06:00:43;;;;;;;10.03;1.90;;;2.80;92.60;;;;;;4434527;32;20563;-64
2020/12/25 06:03:12;;;;;;;10.70;1.87;;;2.70;93.00;;;;;;4430042;32;20286;-64
2020/12/25 06:05:40;;;;;;;7.60;1.90;;;2.60;92.70;;;;;;4438044;32;20170;-64
2020/12/25 06:08:18;;;;;;;11.40;1.70;;;2.60;92.80;;;;;;4424744;32;20168;-64
2020/12/25 06:10:45;;;;;;;10.27;1.80;;;2.50;92.80;;;;;;4428610;32;20163;-64
2020/12/25 06:13:14;;;;;;;14.67;2.60;;;2.50;92.90;;;;;;4425514;32;20234;-63
2020/12/25 06:15:47;;;;;;;13.17;1.90;;;2.60;93.00;;;;;;4435441;32;20167;-65
2020/12/25 06:18:34;;;;;;;10.00;2.00;;;2.70;93.10;;;;;;4435073;32;20194;-65
2020/12/25 06:21:04;;;;;;;10.80;1.80;;;2.90;92.90;;;;;;4435440;32;20516;-64
2020/12/25 06:23:31;;;;;;;8.87;1.63;;;3.00;92.60;;;;;;4433385;32;20178;-65
2020/12/25 06:25:57;;;;;;;14.63;2.60;;;2.90;92.70;;;;;;4435090;32;20217;-66
2020/12/25 06:28:24;;;;;;;18.47;2.60;;;2.90;92.80;;;;;;4435317;32;20163;-66
2020/12/25 06:30:51;;;;;;;16.17;2.07;;;2.90;92.90;;;;;;4436268;32;20229;-63
2020/12/25 06:33:19;;;;;;;9.13;1.70;;;3.00;93.00;;;;;;4426101;32;20292;-64
2020/12/25 06:35:46;;;;;;;7.83;1.73;;;3.00;93.00;;;;;;4434668;32;20210;-65
2020/12/25 06:38:18;;;;;;;10.07;2.00;;;3.00;93.00;;;;;;4436905;32;20171;-63
2020/12/25 06:40:44;;;;;;;14.70;3.10;;;3.10;93.00;;;;;;4432092;32;20461;-67
2020/12/25 06:43:16;;;;;;;6.60;1.50;;;3.20;92.90;;;;;;4435039;32;20308;-63
2020/12/25 06:45:42;;;;;;;8.07;1.50;;;3.20;92.80;;;;;;4430691;32;20163;-64
2020/12/25 06:48:14;;;;;;;6.40;1.63;;;3.30;92.80;;;;;;4433358;32;20215;-64
2020/12/25 06:50:52;;;;;;;8.57;1.70;;;3.30;92.70;;;;;;4431425;32;20178;-64
2020/12/25 06:53:48;;;;;;;10.80;2.13;;;3.20;92.70;;;;;;4433686;32;20184;-63
2020/12/25 06:56:18;;;;;;;9.30;1.87;;;3.10;92.50;;;;;;4374238;32;20192;-64
2020/12/25 06:58:46;;;;;;;6.03;1.50;;;3.00;92.40;;;;;;4378014;32;20442;-64
2020/12/25 07:01:14;;;;;;;4.97;1.90;;;3.00;92.50;;;;;;4384963;32;20173;-63
2020/12/25 07:03:42;;;;;;;13.13;2.10;;;2.90;92.50;;;;;;4384608;32;20228;-64
2020/12/25 07:06:10;;;;;;;6.50;1.27;;;2.80;92.50;;;;;;4386512;32;20211;-64
2020/12/25 07:08:50;;;;;;;7.93;1.93;;;2.80;92.50;;;;;;4387704;32;20793;-66
2020/12/25 07:11:18;;;;;;;5.53;1.57;;;2.70;92.60;;;;;;4383955;32;20165;-67
2020/12/25 07:13:47;;;;;;;8.80;2.37;;;2.70;92.90;;;;;;4373969;32;20164;-64
2020/12/25 07:16:16;;;;;;;7.47;2.03;;;2.70;93.10;;;;;;4378932;32;20223;-70
2020/12/25 07:18:51;;;;;;;9.07;1.70;;;2.70;93.10;;;;;;4379091;32;20306;-65
2020/12/25 07:21:20;;;;;;;9.37;1.73;;;2.80;93.20;;;;;;4380995;32;20187;-66
2020/12/25 07:23:55;;;;;;;10.50;1.60;;;2.90;93.40;;;;;;4381182;32;20216;-64
2020/12/25 07:26:38;;;;;;;6.67;1.80;;;2.80;93.30;;;;;;4384896;32;20584;-63
2020/12/25 07:29:15;;;;;;;6.67;1.63;;;2.80;93.10;;;;;;4371371;32;20196;-63
2020/12/25 07:31:50;;;;;;;4.87;1.20;;;2.70;92.80;;;;;;4433531;32;20562;-64
2020/12/25 07:34:21;;;;;;;7.83;2.37;;;2.60;92.70;;;;;;4425738;32;20175;-64
2020/12/25 07:36:52;;;;;;;12.40;1.73;;;2.60;92.80;;;;;;4434301;32;20219;-63
2020/12/25 07:39:20;;;;;;;7.97;1.80;;;2.50;92.80;;;;;;4427618;32;20204;-64
2020/12/25 07:41:47;;;;;;;6.50;1.97;;;2.40;92.80;;;;;;4424921;32;20221;-66
2020/12/25 07:44:16;;;;;;;13.73;2.80;;;2.40;92.80;;;;;;4433732;32;20218;-68
2020/12/25 07:46:46;;;;;;;5.00;1.43;;;2.40;92.90;;;;;;4429237;32;20155;-65
2020/12/25 07:49:13;;;;;;;7.10;1.40;;;2.30;92.90;;;;;;4425815;32;20289;-64
2020/12/25 07:51:43;;;;;;;9.57;1.77;;;2.30;92.90;;;;;;4423109;32;20493;-64
2020/12/25 07:54:09;;;;;;;4.50;1.60;;;2.30;92.90;;;;;;4427200;32;20167;-66
2020/12/25 07:56:36;;;;;;;7.57;2.20;;;2.30;93.00;;;;;;4427527;32;20613;-64
2020/12/25 07:59:04;;;;;;;3.70;1.63;;;2.20;93.00;;;;;;4424819;32;20270;-64
2020/12/25 08:01:36;;;;;;;11.77;2.00;;;2.20;93.00;;;;;;4426368;32;20220;-64
2020/12/25 08:04:05;;;;;;;7.87;1.57;;;2.20;93.10;;;;;;4427207;32;20151;-62
2020/12/25 08:06:37;;;;;;;7.63;2.50;;;2.20;93.20;;;;;;4427032;32;20170;-67
2020/12/25 08:09:09;;;;;;;5.67;1.63;;;2.20;93.20;;;;;;4425278;32;20150;-64
2020/12/25 08:11:37;;;;;;;8.93;2.03;;;2.20;93.20;;;;;;4428467;32;20520;-65
2020/12/25 08:14:10;;;;;;;4.60;1.87;;;2.30;93.20;;;;;;4426954;32;20159;-67
2020/12/25 08:16:42;;;;;;;7.73;1.50;;;2.30;93.20;;;;;;4427618;32;20143;-63
2020/12/25 08:19:08;;;;;;;11.50;2.10;;;2.20;93.20;;;;;;4427311;32;20140;-65
2020/12/25 08:21:46;;;;;;;8.20;1.97;;;2.20;93.30;;;;;;4427121;32;20263;-62
2020/12/25 08:24:18;;;;;;;11.30;1.57;;;2.20;93.30;;;;;;4429819;32;20150;-63
2020/12/25 08:26:49;;;;;;;11.37;2.03;;;2.30;93.30;;;;;;4426983;32;20623;-64
2020/12/25 08:29:18;;;;;;;8.53;1.63;;;2.30;93.30;;;;;;4428699;32;20182;-64
2020/12/25 08:31:45;;;;;;;5.97;1.90;;;2.30;93.30;;;;;;4423719;32;20155;-63
2020/12/25 08:34:21;;;;;;;9.97;1.97;;;2.30;93.40;;;;;;4425459;32;20228;-63
2020/12/25 08:36:58;;;;;;;7.43;1.97;;;2.20;93.40;;;;;;4427472;32;20186;-64
2020/12/25 08:39:30;;;;;;;5.27;1.33;;;2.30;93.40;;;;;;4426904;32;20170;-68
2020/12/25 08:41:59;;;;;;;5.90;1.77;;;2.30;93.40;;;;;;4428027;32;20245;-65
2020/12/25 08:44:29;;;;;;;9.50;2.10;;;2.30;93.50;;;;;;4430302;32;20150;-67
2020/12/25 08:47:12;;;;;;;5.23;1.53;;;2.40;93.60;;;;;;4429472;32;20139;-65
2020/12/25 08:49:42;;;;;;;11.90;2.63;;;2.50;93.70;;;;;;4427440;32;20186;-66
2020/12/25 08:52:34;;;;;;;10.50;2.30;;;2.50;93.80;;;;;;4429268;32;20177;-68
2020/12/25 08:55:01;;;;;;;11.40;3.30;;;2.50;93.70;;;;;;4432610;32;20171;-66
2020/12/25 08:57:30;;;;;;;13.87;3.00;;;2.50;93.80;;;;;;4434108;32;20224;-66
2020/12/25 09:00:10;;;;;;;9.90;2.50;;;2.50;93.80;;;;;;4429020;32;20143;-64
2020/12/25 09:02:39;;;;;;;9.20;3.03;;;2.50;93.80;;;;;;4432558;32;20218;-66
2020/12/25 09:05:09;;;;;;;10.70;2.90;;;2.50;93.90;;;;;;4429084;32;20219;-66
2020/12/25 09:07:37;;;;;;;17.87;3.00;;;2.60;93.80;;;;;;4432102;32;20226;-65
2020/12/25 09:10:07;;;;;;;11.67;2.70;;;2.60;93.80;;;;;;4426529;32;20583;-65
2020/12/25 09:12:38;;;;;;;13.27;2.43;;;2.70;93.80;;;;;;4431779;32;20513;-69
2020/12/25 09:15:08;;;;;;;13.17;2.87;;;2.80;93.70;;;;;;4428470;32;20163;-65
2020/12/25 09:17:34;;;;;;;17.90;4.03;;;2.80;93.80;;;;;;4435185;32;20522;-68
2020/12/25 09:20:06;;;;;;;11.53;2.43;;;2.80;93.90;;;;;;4428090;32;20220;-70
2020/12/25 09:22:37;;;;;;;12.37;2.93;;;2.80;93.90;;;;;;4434132;32;20154;-66
2020/12/25 09:25:20;;;;;;;13.40;3.03;;;2.80;93.80;;;;;;4432867;32;20218;-64
2020/12/25 09:27:50;;;;;;;11.63;3.10;;;2.90;93.80;;;;;;4431099;32;20261;-66
2020/12/25 09:30:25;;;;;;;3.70;2.10;;;2.90;93.80;;;;;;4432392;32;20155;-68
2020/12/25 09:32:52;;;;;;;8.60;2.40;;;2.90;93.80;;;;;;4432372;32;20170;-67
2020/12/25 09:35:21;;;;;;;7.30;2.90;;;3.00;93.80;;;;;;4433772;32;20257;-65
2020/12/25 09:37:53;;;;;;;10.63;2.30;;;3.00;93.80;;;;;;4435501;32;20605;-64
2020/12/25 09:40:24;;;;;;;13.73;3.10;;;3.10;93.70;;;;;;4428301;32;20482;-64
2020/12/25 09:42:54;;;;;;;13.13;3.00;;;3.10;93.70;;;;;;4431262;32;20167;-64
2020/12/25 09:45:20;;;;;;;14.53;2.87;;;3.20;93.70;;;;;;4436570;32;20166;-64
2020/12/25 09:47:47;;;;;;;11.87;2.70;;;3.20;93.80;;;;;;4435770;32;20201;-65
2020/12/25 09:50:15;;;;;;;8.37;2.60;;;3.20;93.70;;;;;;4433218;32;20192;-67
2020/12/25 09:52:43;;;;;;;11.93;2.83;;;3.30;93.40;;;;;;4436066;32;20211;-69
2020/12/25 09:55:14;;;;;;;13.73;3.70;;;3.40;93.50;;;;;;4435185;32;20193;-65
2020/12/25 09:57:43;;;;;;;10.77;3.23;;;3.40;93.30;;;;;;4434911;32;20182;-65
2020/12/25 10:00:16;;;;;;;11.03;3.13;;;3.40;93.40;;;;;;4435196;32;20498;-65
2020/12/25 10:02:47;;;;;;;10.50;1.93;;;3.40;93.30;;;;;;4428535;32;20186;-64
2020/12/25 10:05:17;;;;;;;11.57;2.30;;;3.50;93.40;;;;;;4434225;32;20163;-65
2020/12/25 10:07:44;;;;;;;13.57;2.53;;;3.50;93.30;;;;;;4435480;32;20151;-65
2020/12/25 10:10:15;;;;;;;9.07;2.67;;;3.60;92.80;;;;;;4433463;32;20155;-65
2020/12/25 10:12:45;;;;;;;8.60;2.30;;;3.60;92.80;;;;;;4436740;32;20559;-65
2020/12/25 10:15:22;;;;;;;6.93;2.80;;;3.70;92.60;;;;;;4431192;32;20231;-65
2020/12/25 10:18:04;;;;;;;9.97;2.00;;;3.80;91.60;;;;;;4433797;32;20650;-67
2020/12/25 10:20:39;;;;;;;13.70;2.07;;;3.70;91.90;;;;;;4434138;32;20214;-65
2020/12/25 10:23:14;;;;;;;12.57;1.67;;;4.00;90.40;;;;;;4435105;32;20554;-68
2020/12/25 10:25:51;;;;;;;9.57;1.80;;;4.20;89.60;;;;;;4430370;32;20223;-65
2020/12/25 10:28:29;;;;;;;5.57;1.50;;;4.30;89.70;;;;;;4435257;32;20163;-65
2020/12/25 10:31:00;;;;;;;5.63;1.43;;;4.50;88.80;;;;;;4429292;32;20531;-65
2020/12/25 10:33:30;;;;;;;7.67;1.63;;;4.50;88.00;;;;;;4424566;32;20227;-66
2020/12/25 10:36:17;;;;;;;9.40;2.13;;;4.40;89.60;;;;;;4429967;32;20211;-68
2020/12/25 10:38:51;;;;;;;9.43;1.77;;;4.40;89.00;;;;;;4424857;32;20240;-68
2020/12/25 10:41:42;;;;;;;9.27;1.90;;;4.50;88.20;;;;;;4427286;32;20289;-66
2020/12/25 10:44:12;;;;;;;10.70;2.00;;;4.60;88.90;;;;;;4428145;32;20159;-65
2020/12/25 10:46:51;;;;;;;4.90;1.10;;;4.90;86.60;;;;;;4426769;32;20147;-67
2020/12/25 10:49:21;;;;;;;6.83;1.63;;;5.10;86.90;;;;;;4427419;32;20193;-67
2020/12/25 10:52:02;;;;;;;8.07;1.80;;;5.00;85.30;;;;;;4424902;32;20205;-65
2020/12/25 10:54:43;;;;;;;13.53;2.37;;;5.00;85.20;;;;;;4425450;32;20155;-67
2020/12/25 10:57:11;;;;;;;9.80;2.00;;;4.90;86.00;;;;;;4427563;32;20189;-65
2020/12/25 10:59:40;;;;;;;10.43;2.63;;;4.70;87.00;;;;;;4426367;32;20154;-68
2020/12/25 11:02:07;;;;;;;9.27;2.00;;;4.80;88.10;;;;;;4429027;32;20222;-65
2020/12/25 11:04:33;;;;;;;9.13;2.37;;;4.60;87.30;;;;;;4428294;32;20159;-65
2020/12/25 11:07:12;;;;;;;4.83;1.47;;;4.60;88.20;;;;;;4421287;32;20513;-65
2020/12/25 11:09:47;;;;;;;8.07;2.10;;;4.70;86.40;;;;;;4428780;32;20147;-65
2020/12/25 11:12:18;;;;;;;12.33;2.50;;;4.80;85.80;;;;;;4426713;32;20192;-64
2020/12/25 11:15:00;;;;;;;12.63;2.23;;;4.90;85.70;;;;;;4428383;32;20487;-64
2020/12/25 11:17:39;;;;;;;11.53;2.37;;;4.90;85.80;;;;;;4428188;32;20279;-66
2020/12/25 11:20:05;;;;;;;7.53;1.80;;;4.90;86.00;;;;;;4425785;32;20260;-68
2020/12/25 11:22:33;;;;;;;9.70;1.60;;;5.10;86.00;;;;;;4428472;32;20230;-64
2020/12/25 11:25:05;;;;;;;9.20;1.97;;;5.20;84.30;;;;;;4426852;32;20259;-67
2020/12/25 11:27:39;;;;;;;7.90;2.10;;;5.50;82.90;;;;;;4427411;32;20170;-65
2020/12/25 11:30:10;;;;;;;7.27;1.80;;;5.80;81.40;;;;;;4427703;32;20439;-69
2020/12/25 11:32:39;;;;;;;9.13;1.60;;;5.90;81.70;;;;;;4428009;32;20575;-67
2020/12/25 11:35:08;;;;;;;7.83;1.87;;;6.00;81.30;;;;;;4430688;32;20282;-64
2020/12/25 11:37:36;;;;;;;8.27;2.00;;;5.90;80.40;;;;;;4435382;32;20215;-68
2020/12/25 11:40:05;;;;;;;13.53;2.53;;;5.70;81.80;;;;;;4432021;32;20170;-67
2020/12/25 11:42:37;;;;;;;4.87;1.60;;;5.60;81.30;;;;;;4424104;32;20151;-65
2020/12/25 11:45:05;;;;;;;9.93;2.40;;;5.50;83.40;;;;;;4429166;32;20147;-66
2020/12/25 11:47:37;;;;;;;7.33;1.40;;;5.80;84.90;;;;;;4419904;32;20266;-67
2020/12/25 11:50:21;;;;;;;8.93;1.73;;;6.20;79.20;;;;;;4428923;32;20155;-67
2020/12/25 11:52:50;;;;;;;6.00;1.80;;;6.30;79.70;;;;;;4432136;32;20227;-67
2020/12/25 11:55:18;;;;;;;15.30;2.80;;;6.30;79.70;;;;;;4430227;32;20162;-66
2020/12/25 11:57:54;;;;;;;6.43;1.70;;;6.20;77.50;;;;;;4433711;32;20583;-66
2020/12/25 12:00:21;;;;;;;7.53;1.87;;;6.00;79.60;;;;;;4425912;32;20202;-66
2020/12/25 12:02:52;;;;;;;4.47;1.30;;;5.80;78.10;;;;;;4433981;32;20312;-65
2020/12/25 12:05:20;;;;;;;9.50;2.20;;;5.70;79.00;;;;;;4420967;32;20163;-66
2020/12/25 12:07:52;;;;;;;11.07;1.73;;;5.70;78.40;;;;;;4422010;32;20148;-65
2020/12/25 12:10:22;;;;;;;12.70;1.97;;;5.60;79.70;;;;;;4425778;32;20227;-66
2020/12/25 12:12:51;;;;;;;6.93;1.50;;;5.80;78.90;;;;;;4427602;32;20197;-65
2020/12/25 12:15:21;;;;;;;6.27;1.40;;;5.80;79.40;;;;;;4429154;32;20305;-68
2020/12/25 12:17:48;;;;;;;7.10;1.77;;;5.80;79.20;;;;;;4429080;32;20317;-69
2020/12/25 12:20:14;;;;;;;4.47;1.70;;;5.70;79.90;;;;;;4429262;32;20163;-67
2020/12/25 12:22:42;;;;;;;5.33;1.90;;;5.60;80.70;;;;;;4432234;32;20241;-67
2020/12/25 12:25:10;;;;;;;13.10;2.30;;;5.70;79.90;;;;;;4429593;32;20199;-69
2020/12/25 12:27:39;;;;;;;8.27;1.97;;;5.70;80.50;;;;;;4430203;32;20168;-67
2020/12/25 12:30:18;;;;;;;4.63;1.30;;;5.80;79.30;;;;;;4429243;32;20185;-68
2020/12/25 12:32:46;;;;;;;5.37;1.40;;;5.80;81.40;;;;;;4430113;32;20467;-67
2020/12/25 12:35:15;;;;;;;6.93;1.50;;;5.80;80.10;;;;;;4428858;32;20151;-67
2020/12/25 12:37:48;;;;;;;6.73;1.20;;;5.70;80.40;;;;;;4429387;32;22093;-68
2020/12/25 12:40:15;;;;;;;8.13;1.67;;;5.70;80.90;;;;;;4429636;32;20528;-66
2020/12/25 12:42:43;;;;;;;12.03;2.00;;;5.90;79.70;;;;;;4431921;32;20570;-68
2020/12/25 12:45:10;;;;;;;5.87;1.83;;;6.00;79.50;;;;;;4430056;32;20214;-68
2020/12/25 12:47:36;;;;;;;12.53;3.27;;;6.00;79.60;;;;;;4430850;32;20632;-67
2020/12/25 12:50:09;;;;;;;8.20;2.00;;;5.90;80.70;;;;;;4428427;32;20142;-68
2020/12/25 12:52:39;;;;;;;15.13;3.53;;;5.80;81.00;;;;;;4432616;32;20148;-68
2020/12/25 12:55:17;;;;;;;8.77;1.90;;;5.80;80.70;;;;;;4428772;32;20162;-67
2020/12/25 12:57:46;;;;;;;6.47;1.77;;;5.70;81.00;;;;;;4427131;32;20214;-66
2020/12/25 13:00:12;;;;;;;11.40;1.87;;;5.70;81.40;;;;;;4428359;32;20150;-68
2020/12/25 13:02:47;;;;;;;7.17;2.20;;;5.60;82.90;;;;;;4431530;32;20219;-68
2020/12/25 13:05:13;;;;;;;13.57;2.13;;;5.80;82.10;;;;;;4429534;32;20151;-67
2020/12/25 13:07:50;;;;;;;8.87;1.73;;;5.90;82.50;;;;;;4429289;32;20154;-66
2020/12/25 13:10:16;;;;;;;3.87;1.47;;;6.20;80.70;;;;;;4431365;32;20154;-65